createdAt,value
2022-12-01T00:01:30.599Z,101075.13
2022-12-01T00:04:39.994Z,101080.81
2022-12-01T00:07:46.240Z,101081.25
2022-12-01T00:10:53.535Z,101085.38
2022-12-01T00:14:00.341Z,101090.97
2022-12-01T00:17:06.546Z,101094.75
2022-12-01T00:20:12.571Z,101096.00
2022-12-01T00:23:20.651Z,101105.41
2022-12-01T00:26:28.722Z,101109.56
2022-12-01T00:29:39.112Z,101102.38
2022-12-01T00:32:45.097Z,101104.75
2022-12-01T00:35:52.286Z,101100.97
2022-12-01T00:38:57.571Z,101105.56
2022-12-01T00:42:05.434Z,101102.88
2022-12-01T00:45:14.274Z,101107.47
2022-12-01T00:48:21.447Z,101108.13
2022-12-01T00:51:26.786Z,101102.84
2022-12-01T00:54:32.871Z,101111.06
2022-12-01T00:57:40.748Z,101111.56
2022-12-01T01:00:48.997Z,101117.16
2022-12-01T01:04:02.367Z,101114.91
2022-12-01T01:07:12.044Z,101111.72
2022-12-01T01:10:18.486Z,101111.34
2022-12-01T01:13:27.537Z,101113.12
2022-12-01T01:16:35.947Z,101107.34
2022-12-01T01:19:43.284Z,101112.94
2022-12-01T01:22:50.814Z,101106.12
2022-12-01T01:26:02.402Z,101107.91
2022-12-01T01:29:10.832Z,101096.69
2022-12-01T01:32:19.493Z,101107.03
2022-12-01T01:35:25.458Z,101099.56
2022-12-01T01:38:32.826Z,101101.72
2022-12-01T01:41:40.248Z,101107.53
2022-12-01T01:44:50.300Z,101101.16
2022-12-01T01:47:57.006Z,101099.81
2022-12-01T01:51:05.460Z,101102.72
2022-12-01T01:54:16.181Z,101110.66
2022-12-01T01:57:24.523Z,101108.47
2022-12-01T02:00:30.063Z,101107.97
2022-12-01T02:03:38.813Z,101102.69
2022-12-01T02:06:44.513Z,101097.81
2022-12-01T02:09:52.540Z,101097.41
2022-12-01T02:13:07.870Z,101104.31
2022-12-01T02:16:27.805Z,101093.03
2022-12-01T02:19:48.613Z,101085.66
2022-12-01T02:22:56.250Z,101092.06
2022-12-01T02:26:05.275Z,101095.09
2022-12-01T02:29:18.033Z,101095.56
2022-12-01T02:32:39.617Z,101100.94
2022-12-01T02:35:52.204Z,101097.00
2022-12-01T02:39:18.925Z,101098.34
2022-12-01T02:42:53.353Z,101097.78
2022-12-01T02:46:21.079Z,101098.50
2022-12-01T02:49:33.921Z,101098.69
2022-12-01T02:52:42.807Z,101099.47
2022-12-01T02:55:54.124Z,101093.41
2022-12-01T02:59:01.463Z,101090.78
2022-12-01T03:02:19.296Z,101083.53
2022-12-01T03:05:42.157Z,101081.19
2022-12-01T03:09:02.718Z,101081.66
2022-12-01T03:12:25.609Z,101082.00
2022-12-01T03:15:34.574Z,101080.50
2022-12-01T03:18:44.559Z,101086.50
2022-12-01T03:21:57.144Z,101088.06
2022-12-01T03:25:05.553Z,101095.25
2022-12-01T03:28:21.066Z,101089.19
2022-12-01T03:31:30.951Z,101081.19
2022-12-01T03:34:42.890Z,101079.41
2022-12-01T03:37:54.221Z,101080.41
2022-12-01T03:41:07.607Z,101074.53
2022-12-01T03:44:17.239Z,101080.03
2022-12-01T03:47:24.544Z,101068.63
2022-12-01T03:50:33.290Z,101071.41
2022-12-01T03:53:55.763Z,101073.12
2022-12-01T03:57:04.523Z,101069.12
2022-12-01T04:00:12.862Z,101075.88
2022-12-01T04:03:21.803Z,101084.13
2022-12-01T04:06:28.521Z,101079.06
2022-12-01T04:09:37.676Z,101077.37
2022-12-01T04:12:43.475Z,101076.44
2022-12-01T04:15:53.781Z,101064.44
2022-12-01T04:19:01.916Z,101066.34
2022-12-01T04:22:08.336Z,101073.25
2022-12-01T04:25:15.930Z,101070.81
2022-12-01T04:28:23.616Z,101072.19
2022-12-01T04:31:30.147Z,101072.53
2022-12-01T04:34:38.504Z,101064.28
2022-12-01T04:37:44.286Z,101067.06
2022-12-01T04:40:51.344Z,101064.69
2022-12-01T04:43:57.502Z,101065.13
2022-12-01T04:47:03.796Z,101074.72
2022-12-01T04:50:10.873Z,101082.62
2022-12-01T04:53:19.105Z,101086.97
2022-12-01T04:56:25.284Z,101092.13
2022-12-01T04:59:35.519Z,101103.44
2022-12-01T05:02:44.248Z,101104.84
2022-12-01T05:05:50.669Z,101095.66
2022-12-01T05:08:58.801Z,101101.19
2022-12-01T05:12:06.219Z,101093.72
2022-12-01T05:15:13.976Z,101085.19
2022-12-01T05:18:22.152Z,101086.28
2022-12-01T05:21:30.241Z,101093.28
2022-12-01T05:24:37.096Z,101094.28
2022-12-01T05:27:42.175Z,101097.22
2022-12-01T05:30:48.644Z,101095.69
2022-12-01T05:33:55.301Z,101083.66
2022-12-01T05:37:04.028Z,101091.81
2022-12-01T05:40:11.920Z,101098.88
2022-12-01T05:43:26.893Z,101099.78
2022-12-01T05:46:37.739Z,101097.94
2022-12-01T05:49:47.036Z,101096.50
2022-12-01T05:52:54.870Z,101095.88
2022-12-01T05:56:00.967Z,101099.09
2022-12-01T05:59:06.141Z,101097.72
2022-12-01T06:02:11.921Z,101097.03
2022-12-01T06:05:16.449Z,101096.25
2022-12-01T06:08:23.219Z,101110.19
2022-12-01T06:11:28.820Z,101108.00
2022-12-01T06:14:31.987Z,101109.16
2022-12-01T06:17:40.116Z,101116.66
2022-12-01T06:20:44.436Z,101115.41
2022-12-01T06:23:52.672Z,101117.09
2022-12-01T06:26:57.077Z,101114.31
2022-12-01T06:30:03.030Z,101112.91
2022-12-01T06:33:06.223Z,101114.38
2022-12-01T06:36:11.266Z,101114.72
2022-12-01T06:39:18.376Z,101120.25
2022-12-01T06:42:22.880Z,101116.25
2022-12-01T06:45:25.695Z,101113.28
2022-12-01T06:48:28.770Z,101112.81
2022-12-01T06:51:34.345Z,101111.37
2022-12-01T06:54:38.568Z,101113.31
2022-12-01T06:57:42.045Z,101107.47
2022-12-01T07:00:50.570Z,101121.00
2022-12-01T07:03:55.271Z,101121.06
2022-12-01T07:06:58.213Z,101109.72
2022-12-01T07:10:01.705Z,101108.72
2022-12-01T07:13:05.822Z,101112.25
2022-12-01T07:16:09.761Z,101114.78
2022-12-01T07:19:13.636Z,101112.69
2022-12-01T07:22:17.613Z,101113.00
2022-12-01T07:25:22.528Z,101117.97
2022-12-01T07:28:27.521Z,101123.44
2022-12-01T07:31:31.567Z,101122.84
2022-12-01T07:34:35.369Z,101122.19
2022-12-01T07:37:38.654Z,101120.81
2022-12-01T07:40:42.280Z,101116.69
2022-12-01T07:43:47.168Z,101124.03
2022-12-01T07:46:50.965Z,101122.91
2022-12-01T07:49:55.784Z,101125.28
2022-12-01T07:52:59.406Z,101123.16
2022-12-01T07:56:08.570Z,101116.00
2022-12-01T07:59:12.776Z,101124.41
2022-12-01T08:02:17.565Z,101127.25
2022-12-01T08:05:22.320Z,101129.59
2022-12-01T08:08:25.629Z,101136.84
2022-12-01T08:11:33.702Z,101139.09
2022-12-01T08:14:37.780Z,101146.81
2022-12-01T08:17:41.908Z,101140.78
2022-12-01T08:20:44.623Z,101133.81
2022-12-01T08:23:48.337Z,101134.87
2022-12-01T08:26:52.056Z,101131.06
2022-12-01T08:29:55.250Z,101127.59
2022-12-01T08:32:58.452Z,101125.63
2022-12-01T08:36:03.388Z,101125.37
2022-12-01T08:39:08.015Z,101124.44
2022-12-01T08:42:11.361Z,101135.37
2022-12-01T08:45:14.489Z,101142.75
2022-12-01T08:48:18.458Z,101138.84
2022-12-01T08:51:22.906Z,101145.19
2022-12-01T08:54:26.034Z,101144.50
2022-12-01T08:57:32.971Z,101136.94
2022-12-01T09:00:38.197Z,101151.13
2022-12-01T09:03:42.715Z,101133.25
2022-12-01T09:06:47.145Z,101128.94
2022-12-01T09:09:51.234Z,101132.00
2022-12-01T09:12:54.620Z,101142.44
2022-12-01T09:16:02.940Z,101137.22
2022-12-01T09:19:06.833Z,101128.19
2022-12-01T09:22:10.282Z,101128.78
2022-12-01T09:25:15.044Z,101121.03
2022-12-01T09:28:18.116Z,101127.44
2022-12-01T09:31:23.817Z,101113.62
2022-12-01T09:34:27.722Z,101119.19
2022-12-01T09:37:30.343Z,101115.25
2022-12-01T09:40:35.246Z,101110.97
2022-12-01T09:43:47.471Z,101110.94
2022-12-01T09:46:54.539Z,101110.75
2022-12-01T09:50:06.639Z,101110.91
2022-12-01T09:53:12.096Z,101109.56
2022-12-01T09:56:20.205Z,101115.28
2022-12-01T09:59:24.630Z,101103.94
2022-12-01T10:02:35.588Z,101096.75
2022-12-01T10:06:10.407Z,101098.50
2022-12-01T10:09:12.269Z,101097.84
2022-12-01T10:12:16.058Z,101094.34
2022-12-01T10:15:29.538Z,101089.50
2022-12-01T10:18:51.590Z,101095.75
2022-12-01T10:21:53.911Z,101092.91
2022-12-01T10:25:05.985Z,101093.84
2022-12-01T10:28:08.311Z,101094.91
2022-12-01T10:31:34.769Z,101094.31
2022-12-01T10:34:39.411Z,101071.31
2022-12-01T10:38:02.704Z,101071.81
2022-12-01T10:41:06.942Z,101068.00
2022-12-01T10:44:09.994Z,101072.53
2022-12-01T10:47:18.611Z,101068.81
2022-12-01T10:50:28.506Z,101065.69
2022-12-01T10:53:33.829Z,101068.47
2022-12-01T10:56:42.246Z,101074.13
2022-12-01T10:59:49.689Z,101073.03
2022-12-01T11:02:55.381Z,101068.94
2022-12-01T11:06:00.412Z,101061.78
2022-12-01T11:09:15.460Z,101066.22
2022-12-01T11:12:20.588Z,101057.34
2022-12-01T11:15:26.490Z,101052.22
2022-12-01T11:18:34.752Z,101052.22
2022-12-01T11:21:46.752Z,101044.41
2022-12-01T11:24:53.018Z,101039.50
2022-12-01T11:28:02.551Z,101050.53
2022-12-01T11:31:08.322Z,101047.31
2022-12-01T11:34:25.375Z,101030.56
2022-12-01T11:37:33.339Z,101028.25
2022-12-01T11:40:44.849Z,101034.25
2022-12-01T11:43:54.014Z,101026.59
2022-12-01T11:47:25.294Z,101035.09
2022-12-01T11:50:30.209Z,101033.63
2022-12-01T11:53:40.381Z,101023.53
2022-12-01T11:56:44.210Z,101027.44
2022-12-01T11:59:48.008Z,101021.78
2022-12-01T12:03:09.799Z,101022.19
2022-12-01T12:06:38.806Z,101017.25
2022-12-01T12:09:45.067Z,101025.59
2022-12-01T12:13:07.112Z,101023.31
2022-12-01T12:16:16.672Z,101020.06
2022-12-01T12:19:22.440Z,101019.22
2022-12-01T12:22:55.826Z,101013.75
2022-12-01T12:25:58.948Z,101014.97
2022-12-01T12:29:17.404Z,101009.31
2022-12-01T12:32:26.504Z,101006.22
2022-12-01T12:35:42.199Z,101009.19
2022-12-01T12:38:52.615Z,101014.91
2022-12-01T12:41:56.380Z,101016.34
2022-12-01T12:45:06.356Z,101011.06
2022-12-01T12:48:11.505Z,101012.94
2022-12-01T12:51:20.111Z,101014.91
2022-12-01T12:54:28.993Z,101008.72
2022-12-01T12:57:45.187Z,101011.97
2022-12-01T13:00:54.029Z,101013.37
2022-12-01T13:03:56.725Z,101007.41
2022-12-01T13:07:04.350Z,101011.72
2022-12-01T13:10:16.415Z,101008.72
2022-12-01T13:13:18.823Z,101009.13
2022-12-01T13:16:26.051Z,101005.53
2022-12-01T13:19:34.055Z,101002.31
2022-12-01T13:22:37.338Z,100999.72
2022-12-01T13:25:41.110Z,100999.63
2022-12-01T13:28:47.609Z,100999.84
2022-12-01T13:31:52.315Z,101001.41
2022-12-01T13:34:55.953Z,100995.25
2022-12-01T13:38:18.714Z,100996.00
2022-12-01T13:41:24.156Z,101003.41
2022-12-01T13:44:30.349Z,101004.13
2022-12-01T13:47:40.342Z,101011.91
2022-12-01T13:50:44.294Z,101011.91
2022-12-01T13:54:25.776Z,101006.63
2022-12-01T13:57:30.417Z,101002.19
2022-12-01T14:00:35.553Z,101004.38
2022-12-01T14:03:41.809Z,100999.22
2022-12-01T14:06:49.891Z,101000.28
2022-12-01T14:09:56.200Z,101005.63
2022-12-01T14:13:04.562Z,101008.16
2022-12-01T14:16:08.621Z,100993.69
2022-12-01T14:19:27.130Z,100989.28
2022-12-01T14:22:33.427Z,100985.78
2022-12-01T14:25:37.812Z,100993.44
2022-12-01T14:28:56.758Z,100982.94
2022-12-01T14:32:00.165Z,100985.09
2022-12-01T14:35:05.820Z,100989.53
2022-12-01T14:38:10.450Z,100977.09
2022-12-01T14:41:25.268Z,100984.62
2022-12-01T14:44:34.155Z,100983.91
2022-12-01T14:47:48.515Z,100985.06
2022-12-01T14:50:54.049Z,100987.19
2022-12-01T14:53:57.396Z,100985.59
2022-12-01T14:57:06.648Z,100982.94
2022-12-01T15:00:16.474Z,100986.88
2022-12-01T15:03:20.472Z,100987.44
2022-12-01T15:06:25.889Z,100985.13
2022-12-01T15:09:34.588Z,100995.41
2022-12-01T15:12:39.050Z,100993.37
2022-12-01T15:15:51.093Z,100992.87
2022-12-01T15:18:55.652Z,100992.25
2022-12-01T15:22:01.205Z,100984.72
2022-12-01T15:25:06.839Z,100990.81
2022-12-01T15:28:15.461Z,100989.13
2022-12-01T15:31:21.165Z,100997.72
2022-12-01T15:34:28.164Z,100999.03
2022-12-01T15:37:42.462Z,100991.84
2022-12-01T15:44:21.138Z,100996.00
2022-12-01T15:47:36.881Z,100990.94
2022-12-01T15:50:46.422Z,100990.25
2022-12-01T15:53:54.396Z,100994.66
2022-12-01T15:56:59.571Z,100991.41
2022-12-01T16:00:04.049Z,100996.16
2022-12-01T16:03:16.006Z,100990.16
2022-12-01T16:06:24.036Z,100994.72
2022-12-01T16:09:30.751Z,100995.84
2022-12-01T16:12:38.283Z,101004.78
2022-12-01T16:15:44.698Z,101003.44
2022-12-01T16:19:13.681Z,100995.38
2022-12-01T16:22:23.569Z,100996.50
2022-12-01T16:25:38.672Z,100990.97
2022-12-01T16:28:44.506Z,100997.31
2022-12-01T16:32:18.798Z,100995.72
2022-12-01T16:35:23.229Z,100995.94
2022-12-01T16:38:31.303Z,100998.66
2022-12-01T16:41:43.284Z,101000.69
2022-12-01T16:44:49.204Z,100999.09
2022-12-01T16:47:55.014Z,101001.84
2022-12-01T16:51:03.328Z,101001.94
2022-12-01T16:54:11.340Z,100997.72
2022-12-01T16:57:21.350Z,100994.59
2022-12-01T17:00:28.400Z,100995.66
2022-12-01T17:03:33.812Z,101005.91
2022-12-01T17:06:40.049Z,101000.81
2022-12-01T17:09:46.904Z,101010.31
2022-12-01T17:12:53.313Z,101000.91
2022-12-01T17:15:59.489Z,101005.31
2022-12-01T17:19:05.428Z,101014.13
2022-12-01T17:22:11.822Z,101014.34
2022-12-01T17:25:16.107Z,101004.06
2022-12-01T17:28:23.352Z,101016.34
2022-12-01T17:31:31.058Z,101014.84
2022-12-01T17:34:37.972Z,101019.91
2022-12-01T17:37:46.052Z,101009.81
2022-12-01T17:41:12.618Z,101007.63
2022-12-01T17:44:20.074Z,101017.47
2022-12-01T17:47:26.317Z,101017.19
2022-12-01T17:50:33.997Z,101022.72
2022-12-01T17:53:41.289Z,101017.59
2022-12-01T17:56:46.810Z,101013.69
2022-12-01T17:59:52.886Z,101016.63
2022-12-01T18:02:58.792Z,101020.09
2022-12-01T18:06:05.877Z,101017.44
2022-12-01T18:09:16.212Z,101025.50
2022-12-01T18:12:23.469Z,101022.63
2022-12-01T18:15:34.667Z,101019.09
2022-12-01T18:18:42.704Z,101015.09
2022-12-01T18:21:52.870Z,101024.31
2022-12-01T18:24:59.850Z,101020.94
2022-12-01T18:28:06.598Z,101021.94
2022-12-01T18:31:16.679Z,101028.34
2022-12-01T18:34:23.084Z,101018.28
2022-12-01T18:37:35.320Z,101021.94
2022-12-01T18:40:41.391Z,101022.91
2022-12-01T18:43:47.553Z,101031.38
2022-12-01T18:46:54.424Z,101030.28
2022-12-01T18:50:01.627Z,101026.28
2022-12-01T18:53:08.000Z,101035.91
2022-12-01T18:56:17.312Z,101033.37
2022-12-01T18:59:23.589Z,101028.25
2022-12-01T19:02:30.237Z,101031.88
2022-12-01T19:05:37.925Z,101029.47
2022-12-01T19:08:44.851Z,101035.44
2022-12-01T19:11:49.706Z,101034.59
2022-12-01T19:14:55.200Z,101032.53
2022-12-01T19:17:59.664Z,101037.88
2022-12-01T19:21:05.061Z,101041.59
2022-12-01T19:24:09.183Z,101044.63
2022-12-01T19:27:13.273Z,101044.81
2022-12-01T19:30:17.302Z,101043.41
2022-12-01T19:33:23.949Z,101044.06
2022-12-01T19:36:29.919Z,101050.22
2022-12-01T19:39:36.433Z,101040.53
2022-12-01T19:42:42.349Z,101039.31
2022-12-01T19:45:47.979Z,101034.47
2022-12-01T19:48:58.818Z,101033.16
2022-12-01T19:52:07.576Z,101030.75
2022-12-01T19:55:13.011Z,101043.06
2022-12-01T19:58:21.372Z,101036.91
2022-12-01T20:01:30.383Z,101043.00
2022-12-01T20:04:37.472Z,101045.59
2022-12-01T20:07:44.155Z,101054.59
2022-12-01T20:10:50.547Z,101045.78
2022-12-01T20:13:57.512Z,101041.88
2022-12-01T20:17:03.112Z,101049.81
2022-12-01T20:20:07.657Z,101051.69
2022-12-01T20:23:11.497Z,101052.69
2022-12-01T20:26:16.702Z,101053.19
2022-12-01T20:29:22.607Z,101053.84
2022-12-01T20:32:36.261Z,101052.06
2022-12-01T20:35:43.008Z,101052.69
2022-12-01T20:38:51.668Z,101049.25
2022-12-01T20:41:58.706Z,101045.22
2022-12-01T20:45:01.839Z,101049.31
2022-12-01T20:48:08.595Z,101060.31
2022-12-01T20:51:14.821Z,101063.94
2022-12-01T20:54:27.988Z,101068.88
2022-12-01T20:57:36.053Z,101067.66
2022-12-01T21:00:45.757Z,101070.50
2022-12-01T21:03:52.999Z,101067.41
2022-12-01T21:07:00.473Z,101069.38
2022-12-01T21:10:07.808Z,101067.94
2022-12-01T21:13:39.253Z,101069.78
2022-12-01T21:16:50.322Z,101075.34
2022-12-01T21:20:04.759Z,101077.47
2022-12-01T21:23:13.653Z,101083.81
2022-12-01T21:26:21.198Z,101080.41
2022-12-01T21:29:28.898Z,101080.87
2022-12-01T21:32:41.165Z,101082.03
2022-12-01T21:35:52.519Z,101078.00
2022-12-01T21:39:06.175Z,101084.41
2022-12-01T21:42:17.831Z,101092.22
2022-12-01T21:45:28.091Z,101091.63
2022-12-01T21:48:37.619Z,101082.28
2022-12-01T21:51:44.436Z,101080.00
2022-12-01T21:54:48.033Z,101084.97
2022-12-01T21:57:53.658Z,101081.63
2022-12-01T22:01:01.879Z,101081.88
2022-12-01T22:04:12.308Z,101090.63
2022-12-01T22:07:17.425Z,101093.47
2022-12-01T22:10:42.864Z,101088.25
2022-12-01T22:13:50.819Z,101095.00
2022-12-01T22:16:59.007Z,101090.69
2022-12-01T22:20:15.945Z,101093.22
2022-12-01T22:23:29.206Z,101089.53
2022-12-01T22:26:35.572Z,101085.63
2022-12-01T22:29:44.542Z,101089.78
2022-12-01T22:32:49.229Z,101085.91
2022-12-01T22:35:55.825Z,101083.03
2022-12-01T22:39:03.710Z,101080.09
2022-12-01T22:42:20.689Z,101073.69
2022-12-01T22:45:27.407Z,101074.19
2022-12-01T22:48:38.801Z,101071.72
2022-12-01T22:51:47.484Z,101075.72
2022-12-01T22:54:53.619Z,101074.72
2022-12-01T22:57:59.015Z,101066.84
2022-12-01T23:01:08.302Z,101067.69
2022-12-01T23:04:24.264Z,101064.59
2022-12-01T23:07:35.805Z,101071.41
2022-12-01T23:10:40.838Z,101066.03
2022-12-01T23:13:46.993Z,101078.03
2022-12-01T23:16:53.808Z,101077.63
2022-12-01T23:20:19.132Z,101074.81
2022-12-01T23:23:28.919Z,101073.69
2022-12-01T23:26:34.387Z,101072.69
2022-12-01T23:29:38.691Z,101070.06
2022-12-01T23:32:46.152Z,101074.25
2022-12-01T23:35:59.210Z,101076.78
2022-12-01T23:39:05.933Z,101075.75
2022-12-01T23:42:09.736Z,101080.03
2022-12-01T23:45:21.812Z,101080.63
2022-12-01T23:48:35.816Z,101083.78
2022-12-01T23:51:44.834Z,101090.53
2022-12-01T23:54:50.409Z,101090.22
2022-12-01T23:57:56.923Z,101086.06
